Time;durP1;ratioP1;P1;durP2;ratioP2;P2;SDS_P1;SDS_P2;PMS_P1;PMS_P2;Temp;Humidity;BMP_temperature;BMP_pressure;BME280_temperature;BME280_humidity;BME280_pressure;Samples;Min_cycle;Max_cycle;Signal;HPM_P1;HPM_P2
2023/04/14 00:01:16;;;;;;;8.10;3.67;;;;;;;12.45;53.28;98842.84;3146279;28;20133;-66
2023/04/14 00:02:48;;;;;;;7.57;4.10;;;;;;;12.50;53.24;98858.19;3146226;28;20143;-66
2023/04/14 00:04:18;;;;;;;9.13;4.28;;;;;;;12.43;53.53;98856.94;3145423;28;20048;-66
2023/04/14 00:05:50;;;;;;;8.52;3.83;;;;;;;12.36;53.85;98853.88;3142210;28;20049;-66
2023/04/14 00:07:22;;;;;;;7.75;3.75;;;;;;;12.33;53.96;98856.72;3146151;28;20063;-66
2023/04/14 00:08:53;;;;;;;11.45;5.18;;;;;;;12.25;54.43;98857.25;3144523;28;20040;-67
2023/04/14 00:10:27;;;;;;;7.75;4.47;;;;;;;12.22;54.56;98859.22;3146390;28;20056;-67
2023/04/14 00:11:58;;;;;;;8.68;4.25;;;;;;;12.15;54.77;98860.56;3146417;28;20044;-67
2023/04/14 00:13:30;;;;;;;12.98;4.95;;;;;;;12.14;54.65;98856.28;3142126;28;20048;-67
2023/04/14 00:15:02;;;;;;;9.73;5.22;;;;;;;12.13;55.53;98863.28;3146262;28;20052;-67
2023/04/14 00:16:34;;;;;;;9.70;5.47;;;;;;;12.04;55.34;98843.03;3146135;28;20359;-67
2023/04/14 00:18:06;;;;;;;11.87;5.77;;;;;;;12.05;55.45;98861.16;3138095;28;20052;-67
2023/04/14 00:19:38;;;;;;;8.90;5.40;;;;;;;12.02;55.80;98857.94;3144666;28;20106;-66
2023/04/14 00:21:10;;;;;;;10.13;5.47;;;;;;;11.91;56.12;98855.19;3146220;28;20441;-67
2023/04/14 00:22:41;;;;;;;10.35;5.72;;;;;;;11.94;56.38;98865.41;3139884;28;20068;-67
2023/04/14 00:24:12;;;;;;;11.48;5.38;;;;;;;11.93;56.49;98868.97;3145753;28;20123;-67
2023/04/14 00:25:45;;;;;;;11.23;5.50;;;;;;;11.91;56.32;98871.66;3134242;28;20099;-68
2023/04/14 00:27:16;;;;;;;8.40;5.10;;;;;;;11.91;56.38;98876.88;3142276;28;20087;-68
2023/04/14 00:28:48;;;;;;;11.48;5.32;;;;;;;11.91;56.51;98876.06;3144084;28;20079;-68
2023/04/14 00:30:20;;;;;;;10.05;5.22;;;;;;;11.91;56.64;98874.28;3145696;28;20052;-67
2023/04/14 00:31:52;;;;;;;12.05;5.70;;;;;;;11.87;56.41;98870.22;3137905;28;20048;-67
2023/04/14 00:33:23;;;;;;;12.45;4.95;;;;;;;11.86;56.66;98873.78;3141544;28;20044;-68
2023/04/14 00:34:55;;;;;;;10.02;5.40;;;;;;;11.88;56.47;98877.09;3140165;28;20055;-67
2023/04/14 00:36:27;;;;;;;11.95;5.57;;;;;;;11.86;56.70;98873.78;3135817;28;20056;-68
2023/04/14 00:37:59;;;;;;;10.88;5.15;;;;;;;11.76;56.61;98863.03;3139413;28;20437;-68
2023/04/14 00:39:30;;;;;;;10.38;5.20;;;;;;;11.77;56.66;98869.09;3138795;28;20060;-68
2023/04/14 00:41:03;;;;;;;9.40;5.10;;;;;;;11.72;56.81;98860.75;3146101;28;20501;-68
2023/04/14 00:42:42;;;;;;;8.43;4.35;;;;;;;11.71;56.91;98874.69;3141630;28;20063;-68
2023/04/14 00:44:13;;;;;;;7.95;4.68;;;;;;;11.65;57.02;98872.50;3146039;28;20052;-68
2023/04/14 00:45:46;;;;;;;7.97;3.97;;;;;;;11.63;56.84;98879.59;3145890;28;20048;-67
2023/04/14 00:47:21;;;;;;;7.30;4.47;;;;;;;11.60;57.20;98873.63;3143524;28;20557;-68
2023/04/14 00:48:53;;;;;;;8.70;4.45;;;;;;;11.54;56.99;98871.44;3145867;28;20052;-68
2023/04/14 00:50:25;;;;;;;6.85;4.18;;;;;;;11.54;56.82;98871.44;3136821;28;20072;-68
2023/04/14 00:51:57;;;;;;;7.13;3.80;;;;;;;11.52;57.11;98870.69;3146181;28;20505;-68
2023/04/14 00:53:29;;;;;;;6.28;3.63;;;;;;;11.34;57.12;98848.38;3146068;28;20052;-68
2023/04/14 00:55:01;;;;;;;9.10;3.80;;;;;;;11.47;56.84;98875.34;3145563;28;20134;-68
2023/04/14 00:56:34;;;;;;;7.70;3.38;;;;;;;11.48;57.17;98884.03;3142817;28;20130;-68
2023/04/14 00:58:06;;;;;;;;;;;;;;;11.38;56.83;98875.94;3133893;28;20789;-68
2023/04/14 00:59:38;;;;;;;7.35;3.17;;;;;;;11.34;57.22;98871.84;3143877;28;20336;-69
2023/04/14 01:01:11;;;;;;;7.22;3.78;;;;;;;11.26;57.19;98864.50;3138029;28;20090;-69
2023/04/14 01:02:43;;;;;;;7.25;3.67;;;;;;;11.33;57.11;98870.19;3142557;28;20056;-69
2023/04/14 01:04:16;;;;;;;6.53;3.30;;;;;;;11.13;56.87;98846.19;3144059;28;20040;-68
2023/04/14 01:05:47;;;;;;;8.82;4.18;;;;;;;11.33;57.02;98868.41;3141618;28;20513;-67
2023/04/14 01:07:20;;;;;;;9.05;3.72;;;;;;;11.31;57.14;98862.44;3145294;28;20048;-67
2023/04/14 01:08:53;;;;;;;6.22;3.83;;;;;;;11.30;57.17;98868.59;3145776;28;20577;-67
2023/04/14 01:10:34;;;;;;;6.45;3.30;;;;;;;11.32;56.85;98868.50;3145868;28;20048;-67
2023/04/14 01:12:15;;;;;;;7.68;3.63;;;;;;;11.32;56.70;98861.50;3141199;28;20051;-67
2023/04/14 01:13:57;;;;;;;7.38;3.30;;;;;;;11.29;56.63;98873.91;3145845;28;20143;-68
2023/04/14 01:15:36;;;;;;;6.68;3.88;;;;;;;11.28;56.72;98867.03;3145465;28;20056;-68
2023/04/14 01:17:14;;;;;;;7.53;4.10;;;;;;;11.26;56.72;98869.72;3137994;28;20048;-68
2023/04/14 01:18:53;;;;;;;7.28;3.25;;;;;;;11.25;56.90;98868.06;3135740;28;20506;-68
2023/04/14 01:20:33;;;;;;;4.50;3.05;;;;;;;11.21;57.08;98866.59;3141349;28;20056;-67
2023/04/14 01:22:08;;;;;;;7.47;3.00;;;;;;;11.18;57.11;98868.53;3145528;28;20053;-67
2023/04/14 01:23:41;;;;;;;6.30;3.55;;;;;;;11.15;57.29;98870.41;3145485;28;20071;-66
2023/04/14 01:25:38;;;;;;;6.10;3.20;;;;;;;11.13;57.23;98864.44;3145294;28;20098;-66
2023/04/14 01:27:31;;;;;;;6.35;3.58;;;;;;;11.07;57.29;98866.59;3097666;28;20050;-68
2023/04/14 01:29:34;;;;;;;5.93;3.45;;;;;;;11.04;57.05;98867.63;3145276;28;20080;-68
2023/04/14 01:31:23;;;;;;;7.68;3.60;;;;;;;10.95;57.25;98867.38;3125384;28;20045;-69
2023/04/14 01:32:58;;;;;;;6.47;3.47;;;;;;;10.98;57.60;98859.34;3137611;28;20207;-68
2023/04/14 01:34:35;;;;;;;8.02;3.30;;;;;;;10.98;57.66;98860.19;3142678;28;20068;-68
2023/04/14 01:36:12;;;;;;;9.18;3.55;;;;;;;10.94;57.43;98858.69;3137104;28;20059;-68
2023/04/14 01:37:47;;;;;;;11.00;3.55;;;;;;;11.00;57.61;98866.13;3145590;28;20502;-68
2023/04/14 01:39:21;;;;;;;6.38;3.88;;;;;;;10.95;57.43;98860.38;3137688;28;20052;-68
2023/04/14 01:40:58;;;;;;;8.23;3.45;;;;;;;10.97;57.58;98852.44;3141485;28;20436;-68
2023/04/14 01:42:32;;;;;;;7.45;3.70;;;;;;;11.01;57.35;98867.81;3144269;28;20521;-68
2023/04/14 01:44:06;;;;;;;7.53;3.50;;;;;;;10.98;57.49;98865.41;3145386;28;20044;-67
2023/04/14 01:45:42;;;;;;;7.38;2.97;;;;;;;11.00;57.21;98860.91;3145273;28;20056;-67
2023/04/14 01:47:20;;;;;;;6.88;3.13;;;;;;;11.03;57.42;98858.16;3138983;28;20049;-66
2023/04/14 01:48:52;;;;;;;8.57;3.35;;;;;;;10.97;57.22;98855.88;3145481;28;20052;-66
2023/04/14 01:50:27;;;;;;;7.00;3.08;;;;;;;10.98;57.50;98852.38;3137093;28;20056;-67
2023/04/14 01:52:01;;;;;;;6.57;3.13;;;;;;;11.00;57.42;98860.91;3145362;28;20063;-66
2023/04/14 01:53:35;;;;;;;5.50;3.10;;;;;;;11.01;57.49;98860.00;3145004;28;20533;-66
2023/04/14 01:55:10;;;;;;;5.75;3.35;;;;;;;11.02;57.26;98859.06;3141304;28;20068;-66
2023/04/14 01:56:43;;;;;;;5.43;3.25;;;;;;;11.03;57.52;98859.88;3145312;28;20518;-66
2023/04/14 01:58:15;;;;;;;;;;;;;;;10.87;57.53;98858.22;3145417;28;20055;-66
2023/04/14 01:59:50;;;;;;;6.63;3.13;;;;;;;10.86;57.79;98853.97;3145145;28;19932;-66
2023/04/14 02:01:22;;;;;;;7.38;3.38;;;;;;;10.83;57.62;98851.56;3136339;28;20075;-66
2023/04/14 02:02:56;;;;;;;7.63;3.27;;;;;;;10.83;57.70;98845.50;3144752;28;20482;-66
2023/04/14 02:04:30;;;;;;;7.55;3.85;;;;;;;10.90;57.47;98859.81;3142718;28;20059;-66
2023/04/14 02:06:03;;;;;;;;;;;;;;;10.79;57.53;98857.03;3144308;28;20086;-66
2023/04/14 02:07:35;;;;;;;5.15;2.90;;;;;;;10.78;57.87;98852.75;3144521;28;19920;-66
2023/04/14 02:09:11;;;;;;;6.43;3.53;;;;;;;10.61;57.46;98814.72;3136576;28;20480;-66
2023/04/14 02:10:45;;;;;;;5.80;3.03;;;;;;;10.77;57.45;98840.69;3142526;28;20059;-67
2023/04/14 02:12:18;;;;;;;5.30;3.28;;;;;;;10.79;57.60;98846.59;3144749;28;20048;-66
2023/04/14 02:13:52;;;;;;;5.65;3.15;;;;;;;10.75;57.38;98842.53;3145056;28;20052;-67
2023/04/14 02:15:27;;;;;;;9.15;3.35;;;;;;;10.74;57.82;98846.03;3136560;28;20510;-66
2023/04/14 02:17:01;;;;;;;7.22;3.40;;;;;;;10.72;57.78;98845.31;3140515;28;20082;-66
2023/04/14 02:18:37;;;;;;;7.10;3.28;;;;;;;10.71;57.74;98849.69;3144936;28;20538;-66
2023/04/14 02:20:11;;;;;;;7.05;3.10;;;;;;;10.62;57.84;98832.03;3136849;28;20438;-66
2023/04/14 02:21:44;;;;;;;6.25;3.35;;;;;;;10.67;57.61;98845.59;3139561;28;20052;-66
2023/04/14 02:23:15;;;;;;;8.45;3.58;;;;;;;10.61;57.78;98844.19;3145237;28;20044;-67
2023/04/14 02:24:46;;;;;;;6.78;3.10;;;;;;;10.60;57.70;98839.09;3136548;28;20052;-66
2023/04/14 02:26:23;;;;;;;6.47;3.22;;;;;;;10.62;57.78;98842.44;3142156;28;20070;-66
2023/04/14 02:27:59;;;;;;;6.20;3.03;;;;;;;10.65;57.96;98845.69;3135692;28;20045;-67
2023/04/14 02:29:33;;;;;;;5.10;2.95;;;;;;;10.65;57.92;98848.31;3138786;28;20118;-66
2023/04/14 02:31:08;;;;;;;8.85;3.85;;;;;;;10.63;57.90;98841.50;3144398;28;20060;-66
2023/04/14 02:32:46;;;;;;;9.35;3.17;;;;;;;10.64;58.04;98844.00;3134341;28;20181;-66
2023/04/14 02:34:23;;;;;;;5.30;3.28;;;;;;;10.65;58.08;98843.09;3143744;28;20438;-67
2023/04/14 02:36:02;;;;;;;10.00;3.90;;;;;;;10.64;57.75;98851.81;3134760;28;20505;-66
2023/04/14 02:37:39;;;;;;;14.45;7.63;;;;;;;10.65;57.96;98847.47;3144446;28;20561;-66
2023/04/14 02:39:17;;;;;;;11.00;6.00;;;;;;;10.67;57.97;98854.22;3131817;28;20071;-65
2023/04/14 02:40:50;;;;;;;6.85;4.10;;;;;;;10.63;57.80;98852.75;3134418;28;20071;-65
2023/04/14 02:42:27;;;;;;;5.97;3.08;;;;;;;10.67;57.66;98853.41;3134594;28;20056;-65
2023/04/14 02:44:07;;;;;;;8.25;3.47;;;;;;;10.64;57.59;98854.41;3125429;28;20376;-66
2023/04/14 02:45:42;;;;;;;9.57;3.58;;;;;;;10.63;57.64;98844.94;3135003;28;20066;-66
2023/04/14 02:47:22;;;;;;;5.78;3.17;;;;;;;10.59;57.86;98842.59;3134434;28;20163;-66
2023/04/14 02:48:56;;;;;;;6.15;3.97;;;;;;;10.63;57.79;98852.75;3128924;28;20877;-66
2023/04/14 02:50:32;;;;;;;9.50;3.28;;;;;;;10.63;57.62;98857.13;3126533;28;20132;-66
2023/04/14 02:52:06;;;;;;;7.90;3.45;;;;;;;10.62;57.83;98858.91;3133799;28;20415;-66
2023/04/14 02:53:38;;;;;;;9.40;3.72;;;;;;;10.61;57.82;98851.16;3123874;28;20083;-66
2023/04/14 02:55:10;;;;;;;10.88;4.75;;;;;;;10.59;58.16;98855.63;3131991;28;20078;-66
2023/04/14 02:56:43;;;;;;;5.82;3.42;;;;;;;10.54;58.11;98868.94;3125924;28;20494;-65
2023/04/14 02:58:16;;;;;;;7.83;4.20;;;;;;;10.52;58.09;98855.16;3110359;28;20056;-65
2023/04/14 02:59:49;;;;;;;5.00;3.13;;;;;;;10.53;58.13;98862.06;3125961;28;20604;-65
2023/04/14 03:01:21;;;;;;;7.22;3.45;;;;;;;10.53;58.02;98863.81;3134361;28;20063;-66
2023/04/14 03:02:54;;;;;;;7.03;3.25;;;;;;;10.36;58.04;98846.59;3134958;28;20058;-66
2023/04/14 03:04:26;;;;;;;5.20;3.15;;;;;;;10.51;58.31;98874.31;3132656;28;20048;-66
2023/04/14 03:05:59;;;;;;;5.35;3.05;;;;;;;10.50;58.07;98880.47;3132108;28;20056;-65
2023/04/14 03:07:33;;;;;;;7.13;3.55;;;;;;;10.46;58.14;98874.59;3135032;28;20071;-66
2023/04/14 03:09:05;;;;;;;;;;;;;;;10.36;58.27;98873.47;3127277;28;20044;-66
2023/04/14 03:10:37;;;;;;;6.75;3.40;;;;;;;10.35;58.56;98873.53;3130502;28;20317;-66
2023/04/14 03:12:12;;;;;;;7.78;3.97;;;;;;;10.37;58.68;98874.31;3124451;28;20048;-65
2023/04/14 03:13:45;;;;;;;6.05;3.13;;;;;;;10.38;58.26;98878.56;3135016;28;20083;-65
2023/04/14 03:15:18;;;;;;;6.82;3.30;;;;;;;10.38;58.30;98881.16;3135676;28;20063;-66
2023/04/14 03:16:50;;;;;;;7.80;3.40;;;;;;;10.36;58.32;98875.25;3134428;28;20580;-66
2023/04/14 03:18:23;;;;;;;8.98;3.63;;;;;;;10.37;58.11;98879.50;3134891;28;20056;-65
2023/04/14 03:19:55;;;;;;;7.75;3.58;;;;;;;10.30;58.35;98863.41;3129271;28;20049;-66
2023/04/14 03:21:29;;;;;;;7.25;3.45;;;;;;;10.37;58.30;98879.50;3125978;28;20052;-66
2023/04/14 03:23:04;;;;;;;8.13;4.15;;;;;;;10.37;58.20;98877.72;3130153;28;20133;-66
2023/04/14 03:24:35;;;;;;;5.57;3.10;;;;;;;10.37;58.18;98875.13;3126599;28;20103;-67
2023/04/14 03:26:08;;;;;;;7.60;3.20;;;;;;;10.38;58.65;98873.34;3124486;28;20064;-67
2023/04/14 03:27:43;;;;;;;4.93;3.00;;;;;;;10.37;58.53;98885.53;3132787;28;20155;-67
2023/04/14 03:29:18;;;;;;;9.93;3.25;;;;;;;10.37;58.26;98882.09;3134850;28;20048;-67
2023/04/14 03:30:52;;;;;;;6.10;3.60;;;;;;;10.37;58.29;98889.91;3134111;28;20056;-66
2023/04/14 03:32:28;;;;;;;6.60;3.40;;;;;;;10.35;58.56;98879.59;3127623;28;20106;-66
2023/04/14 03:34:03;;;;;;;7.05;3.60;;;;;;;10.32;58.32;98878.94;3122193;28;20575;-67
2023/04/14 03:35:37;;;;;;;11.25;3.85;;;;;;;10.32;58.58;98871.94;3122396;28;20053;-65
2023/04/14 03:37:13;;;;;;;10.13;4.22;;;;;;;10.28;58.91;98874.84;3131595;28;20641;-68
2023/04/14 03:38:48;;;;;;;9.07;4.70;;;;;;;10.21;59.00;98869.97;3127451;28;20041;-67
2023/04/14 03:40:22;;;;;;;5.90;3.67;;;;;;;10.17;59.12;98868.44;3133193;28;20143;-68
2023/04/14 03:41:56;;;;;;;8.40;4.18;;;;;;;10.15;59.00;98864.28;3134565;28;20062;-66
2023/04/14 03:43:28;;;;;;;13.20;4.50;;;;;;;10.14;58.93;98863.44;3134576;28;20056;-67
2023/04/14 03:45:03;;;;;;;13.60;5.00;;;;;;;10.09;59.30;98865.50;3135465;28;20070;-66
2023/04/14 03:46:35;;;;;;;10.73;4.18;;;;;;;10.07;59.25;98869.94;3135619;28;20054;-66
2023/04/14 03:48:11;;;;;;;11.15;4.25;;;;;;;10.10;59.20;98868.91;3134914;28;20249;-66
2023/04/14 03:49:46;;;;;;;7.18;4.22;;;;;;;10.10;59.37;98872.34;3131019;28;20055;-67
2023/04/14 03:51:20;;;;;;;11.38;4.72;;;;;;;10.11;59.41;98874.03;3131062;28;20048;-66
2023/04/14 03:52:54;;;;;;;9.43;3.75;;;;;;;10.14;59.21;98878.22;3133616;28;20049;-66
2023/04/14 03:54:29;;;;;;;11.02;4.22;;;;;;;10.15;59.21;98879.91;3130038;28;20449;-65
2023/04/14 03:56:03;;;;;;;9.98;3.65;;;;;;;10.18;59.15;98880.56;3134828;28;20407;-65
2023/04/14 03:57:37;;;;;;;8.45;4.00;;;;;;;9.98;59.38;98854.84;3134400;28;20053;-65
2023/04/14 03:59:14;;;;;;;7.20;3.28;;;;;;;10.20;59.00;98893.47;3128887;28;20118;-65
2023/04/14 04:00:47;;;;;;;8.80;3.97;;;;;;;10.21;59.03;98890.78;3127176;28;20181;-66
2023/04/14 04:02:21;;;;;;;8.95;3.50;;;;;;;10.23;58.92;98891.53;3135216;28;20059;-66
2023/04/14 04:03:54;;;;;;;10.10;3.85;;;;;;;10.25;59.05;98897.47;3135308;28;20231;-66
2023/04/14 04:05:26;;;;;;;;;;;;;;;10.20;58.58;98912.53;3129724;28;20834;-66
2023/04/14 04:06:58;;;;;;;10.82;3.85;;;;;;;10.21;58.81;98914.19;3131455;28;20484;-66
2023/04/14 04:08:33;;;;;;;7.82;3.60;;;;;;;10.25;59.02;98909.66;3127625;28;20163;-66
2023/04/14 04:10:06;;;;;;;11.15;3.97;;;;;;;10.28;58.69;98912.09;3136441;28;20521;-66
2023/04/14 04:11:38;;;;;;;;;;;;;;;10.23;58.76;98906.28;3136575;28;20064;-66
2023/04/14 04:13:15;;;;;;;9.10;3.20;;;;;;;10.27;58.84;98912.22;3135885;28;19924;-67
2023/04/14 04:14:46;;;;;;;6.85;3.28;;;;;;;10.28;58.76;98906.06;3136592;28;20052;-66
2023/04/14 04:16:21;;;;;;;8.88;3.72;;;;;;;10.18;58.92;98890.97;3129174;28;20513;-66
2023/04/14 04:17:53;;;;;;;9.00;3.53;;;;;;;10.31;58.86;98905.88;3137433;28;20059;-66
2023/04/14 04:19:26;;;;;;;7.68;3.58;;;;;;;10.29;58.69;98897.31;3136012;28;20052;-66
2023/04/14 04:20:59;;;;;;;10.33;2.80;;;;;;;10.31;58.81;98895.47;3134409;28;20109;-66
2023/04/14 04:22:34;;;;;;;5.28;2.95;;;;;;;10.29;58.75;98890.34;3136889;28;20636;-66
2023/04/14 04:24:08;;;;;;;6.10;2.92;;;;;;;10.28;58.54;98895.66;3130241;28;20052;-66
2023/04/14 04:25:41;;;;;;;5.60;3.03;;;;;;;10.29;58.64;98898.16;3135512;28;20168;-66
2023/04/14 04:27:15;;;;;;;6.85;3.25;;;;;;;10.35;58.62;98904.78;3136291;28;20383;-66
2023/04/14 04:28:47;;;;;;;6.35;2.85;;;;;;;10.38;58.67;98894.19;3139432;28;20052;-66
2023/04/14 04:30:21;;;;;;;7.77;2.97;;;;;;;10.41;58.46;98904.41;3136808;28;20438;-67
2023/04/14 04:31:53;;;;;;;7.22;4.28;;;;;;;10.41;58.61;98899.19;3133876;28;20048;-67
2023/04/14 04:33:27;;;;;;;7.80;2.90;;;;;;;10.41;58.24;98891.41;3132564;28;20532;-66
2023/04/14 04:35:00;;;;;;;7.78;2.97;;;;;;;10.40;58.34;98893.16;3131219;28;20062;-67
2023/04/14 04:36:34;;;;;;;7.78;2.90;;;;;;;10.45;58.27;98898.13;3130633;28;20056;-67
2023/04/14 04:38:07;;;;;;;;;;;;;;;10.41;58.18;98901.81;3136065;28;20667;-66
2023/04/14 04:39:40;;;;;;;7.93;2.55;;;;;;;10.42;58.36;98901.72;3129984;28;20306;-66
2023/04/14 04:41:21;;;;;;;7.25;3.17;;;;;;;10.45;58.16;98905.94;3137283;28;20052;-66
2023/04/14 04:42:53;;;;;;;6.72;3.22;;;;;;;10.48;58.21;98905.75;3136188;28;20551;-66
2023/04/14 04:44:25;;;;;;;7.25;2.85;;;;;;;10.51;58.12;98907.34;3136096;28;20060;-67
2023/04/14 04:46:25;;;;;;;6.72;3.13;;;;;;;10.52;57.91;98907.22;3137104;28;20088;-67
2023/04/14 04:47:57;;;;;;;4.88;3.10;;;;;;;10.56;58.18;98900.94;3129506;28;20473;-65
2023/04/14 04:49:29;;;;;;;5.57;3.00;;;;;;;10.61;57.87;98908.44;3127984;28;20548;-66
2023/04/14 04:51:00;;;;;;;6.68;2.80;;;;;;;10.62;58.23;98904.94;3125955;28;20462;-66
2023/04/14 04:52:32;;;;;;;6.65;3.13;;;;;;;10.63;57.98;98904.81;3118034;28;20364;-65
2023/04/14 04:54:04;;;;;;;9.15;3.00;;;;;;;10.64;58.08;98897.84;3127847;28;20406;-66
2023/04/14 04:55:38;;;;;;;5.93;3.13;;;;;;;10.65;58.18;98894.34;3136085;28;20044;-66
2023/04/14 04:57:10;;;;;;;5.57;3.10;;;;;;;10.69;57.95;98882.78;3136923;28;20174;-67
2023/04/14 04:58:42;;;;;;;6.03;2.75;;;;;;;10.68;58.07;98884.56;3135920;28;20048;-67
2023/04/14 05:00:14;;;;;;;8.52;3.22;;;;;;;10.73;58.35;98886.88;3136437;28;20052;-67
2023/04/14 05:01:46;;;;;;;4.60;2.92;;;;;;;10.76;58.30;98878.88;3136995;28;20062;-66
2023/04/14 05:03:18;;;;;;;10.23;3.30;;;;;;;10.80;58.08;98872.56;3133514;28;20212;-67
2023/04/14 05:04:50;;;;;;;8.38;3.30;;;;;;;10.84;58.19;98876.66;3123157;28;20117;-67
2023/04/14 05:06:23;;;;;;;5.88;2.95;;;;;;;10.87;58.21;98868.66;3136814;28;20786;-68
2023/04/14 05:07:55;;;;;;;8.25;3.38;;;;;;;10.91;57.82;98877.09;3136407;28;20068;-67
2023/04/14 05:09:27;;;;;;;10.43;3.70;;;;;;;10.96;57.90;98888.09;3135744;28;20118;-66
2023/04/14 05:11:00;;;;;;;5.30;3.40;;;;;;;10.97;58.10;98887.16;3135968;28;20071;-66
2023/04/14 05:12:32;;;;;;;9.98;3.50;;;;;;;10.95;57.78;98880.38;3130742;28;20318;-67
2023/04/14 05:14:04;;;;;;;6.93;3.95;;;;;;;10.99;58.01;98882.69;3132733;28;20048;-66
2023/04/14 05:15:36;;;;;;;11.07;3.55;;;;;;;10.99;58.11;98877.47;3136137;28;20072;-65
2023/04/14 05:17:08;;;;;;;7.55;3.75;;;;;;;11.02;57.78;98874.69;3129123;28;20810;-66
2023/04/14 05:18:41;;;;;;;7.85;3.63;;;;;;;11.03;58.04;98868.56;3120024;28;20060;-67
2023/04/14 05:20:13;;;;;;;7.18;3.38;;;;;;;11.04;57.81;98869.41;3123274;28;20672;-65
2023/04/14 05:21:45;;;;;;;8.65;3.30;;;;;;;11.06;57.74;98867.50;3129497;28;20852;-65
2023/04/14 05:23:16;;;;;;;6.20;3.53;;;;;;;11.04;58.05;98870.22;3136104;28;20125;-66
2023/04/14 05:24:51;;;;;;;6.82;3.40;;;;;;;11.06;58.09;98865.78;3128625;28;20056;-64
2023/04/14 05:26:25;;;;;;;7.20;3.40;;;;;;;11.07;58.10;98874.41;3131429;28;20508;-64
2023/04/14 05:27:56;;;;;;;10.07;3.30;;;;;;;11.04;58.32;98872.00;3127743;28;20048;-63
2023/04/14 05:29:28;;;;;;;10.20;3.95;;;;;;;11.06;58.61;98878.78;3134849;28;20060;-63
2023/04/14 05:31:00;;;;;;;10.02;3.78;;;;;;;11.06;58.18;98886.63;3135431;28;20105;-64
2023/04/14 05:32:32;;;;;;;5.63;3.60;;;;;;;11.08;58.48;98891.72;3127001;28;20053;-62
2023/04/14 05:34:04;;;;;;;4.82;3.20;;;;;;;11.07;58.73;98879.63;3130814;28;20538;-62
2023/04/14 05:35:37;;;;;;;9.68;3.20;;;;;;;11.06;58.80;98884.00;3124239;28;20057;-62
2023/04/14 05:37:09;;;;;;;7.43;3.55;;;;;;;11.04;58.70;98879.81;3135376;28;20057;-67
2023/04/14 05:38:41;;;;;;;5.95;3.42;;;;;;;11.04;58.90;98869.41;3129343;28;20649;-68
2023/04/14 05:40:13;;;;;;;11.20;3.88;;;;;;;11.05;58.72;98866.69;3135133;28;20048;-65
2023/04/14 05:41:47;;;;;;;7.70;3.28;;;;;;;11.14;59.00;98873.09;3135882;28;20086;-66
2023/04/14 05:43:19;;;;;;;7.20;3.40;;;;;;;11.15;58.91;98873.00;3135997;28;20529;-67
2023/04/14 05:44:51;;;;;;;11.90;4.30;;;;;;;11.10;58.70;98863.81;3135282;28;20065;-64
2023/04/14 05:46:23;;;;;;;5.97;3.50;;;;;;;11.15;58.67;98870.41;3127378;28;20055;-65
2023/04/14 05:47:55;;;;;;;4.80;2.97;;;;;;;11.19;58.77;98875.44;3126708;28;20049;-64
2023/04/14 05:49:27;;;;;;;6.32;3.00;;;;;;;11.23;58.71;98869.06;3122509;28;20140;-67
2023/04/14 05:50:59;;;;;;;11.32;3.20;;;;;;;11.29;58.99;98868.69;3132035;28;20060;-64
2023/04/14 05:52:31;;;;;;;8.90;3.70;;;;;;;11.31;58.98;98861.63;3134912;28;20056;-66
2023/04/14 05:54:03;;;;;;;8.68;4.00;;;;;;;11.36;58.95;98864.78;3125704;28;20491;-65
2023/04/14 05:55:35;;;;;;;8.65;3.90;;;;;;;11.39;58.61;98854.16;3126844;28;20115;-65
2023/04/14 05:57:08;;;;;;;4.63;2.95;;;;;;;11.40;58.75;98853.22;3129236;28;20052;-65
2023/04/14 05:58:40;;;;;;;;;;;;;;;11.32;58.81;98843.25;3130268;28;20126;-60
2023/04/14 06:00:13;;;;;;;5.63;2.88;;;;;;;11.31;59.17;98846.81;3134058;28;19924;-61
2023/04/14 06:01:45;;;;;;;;;;;;;;;11.26;58.99;98846.25;3134682;28;20117;-60
2023/04/14 06:03:17;;;;;;;6.45;3.28;;;;;;;11.27;59.20;98834.91;3120852;28;19935;-63
2023/04/14 06:04:48;;;;;;;9.23;3.58;;;;;;;11.37;59.26;98837.78;3133338;28;20052;-60
2023/04/14 06:06:21;;;;;;;8.50;4.05;;;;;;;11.42;59.27;98840.94;3123284;28;20052;-60
2023/04/14 06:07:52;;;;;;;10.82;5.95;;;;;;;11.49;59.37;98842.19;3126428;28;20063;-63
2023/04/14 06:09:24;;;;;;;32.13;17.25;;;;;;;11.49;59.21;98846.56;3128494;28;20603;-62
2023/04/14 06:10:56;;;;;;;8.48;4.07;;;;;;;11.57;58.96;98863.41;3130534;28;20148;-61
2023/04/14 06:12:30;;;;;;;9.55;5.88;;;;;;;11.61;58.98;98864.88;3134688;28;20060;-61
2023/04/14 06:14:04;;;;;;;59.38;32.80;;;;;;;11.65;58.96;98859.44;3134670;28;20476;-63
2023/04/14 06:15:36;;;;;;;8.30;3.90;;;;;;;11.66;58.74;98855.94;3117554;28;20291;-62
2023/04/14 06:17:08;;;;;;;17.42;9.20;;;;;;;11.71;58.57;98864.28;3135778;28;20513;-66
2023/04/14 06:18:40;;;;;;;33.97;15.50;;;;;;;11.74;58.32;98869.28;3132960;28;20059;-65
2023/04/14 06:20:12;;;;;;;8.15;4.80;;;;;;;11.76;58.67;98873.47;3123644;28;20570;-66
2023/04/14 06:21:45;;;;;;;32.15;13.50;;;;;;;11.78;58.17;98861.19;3134622;28;20121;-64
2023/04/14 06:23:26;;;;;;;14.32;5.88;;;;;;;11.81;58.48;98860.16;3131569;28;20045;-64
2023/04/14 06:24:58;;;;;;;34.90;18.42;;;;;;;11.84;58.27;98852.94;3138107;28;20582;-63
2023/04/14 06:26:31;;;;;;;14.77;7.05;;;;;;;11.91;58.31;98847.34;3144784;28;20044;-65
2023/04/14 06:28:05;;;;;;;11.07;4.55;;;;;;;11.94;58.15;98832.34;3144451;28;20041;-64
2023/04/14 06:29:36;;;;;;;6.95;4.05;;;;;;;11.93;58.46;98827.22;3145064;28;20048;-62
2023/04/14 06:31:09;;;;;;;10.43;4.53;;;;;;;11.97;58.24;98823.47;3145119;28;20066;-66
2023/04/14 06:32:40;;;;;;;13.57;4.45;;;;;;;11.94;58.34;98824.50;3137524;28;20056;-64
2023/04/14 06:34:12;;;;;;;8.70;4.80;;;;;;;11.94;58.32;98845.38;3143658;28;20130;-63
2023/04/14 06:35:44;;;;;;;6.90;4.20;;;;;;;11.94;58.48;98849.78;3132865;28;20053;-63
2023/04/14 06:37:16;;;;;;;10.32;4.65;;;;;;;11.87;58.29;98835.47;3131855;28;20089;-62
2023/04/14 06:38:48;;;;;;;9.55;4.65;;;;;;;11.96;58.46;98833.06;3122253;28;20053;-63
2023/04/14 06:40:20;;;;;;;10.00;4.35;;;;;;;12.01;58.23;98840.63;3118818;28;20111;-62
2023/04/14 06:41:53;;;;;;;9.82;4.68;;;;;;;12.05;58.41;98850.72;3121219;28;20142;-62
2023/04/14 06:43:37;;;;;;;8.95;4.53;;;;;;;12.00;58.42;98837.16;3120560;28;20119;-66
2023/04/14 06:45:09;;;;;;;7.22;4.50;;;;;;;12.10;58.18;98858.25;3117077;28;20079;-63
2023/04/14 06:46:41;;;;;;;8.07;4.53;;;;;;;12.11;58.14;98859.09;3119286;28;20061;-62
2023/04/14 06:48:14;;;;;;;11.05;5.38;;;;;;;12.13;58.15;98850.22;3118796;28;20053;-63
2023/04/14 06:49:46;;;;;;;9.32;4.70;;;;;;;12.11;58.26;98840.81;3121594;28;20053;-69
2023/04/14 06:51:18;;;;;;;10.50;5.22;;;;;;;12.24;58.07;98844.28;3117964;28;20344;-72
2023/04/14 06:52:50;;;;;;;9.38;4.93;;;;;;;12.25;57.95;98840.75;3117561;28;20095;-66
2023/04/14 06:54:22;;;;;;;8.77;4.47;;;;;;;12.16;58.29;98839.59;3115734;28;20123;-68
2023/04/14 06:55:59;;;;;;;10.52;4.35;;;;;;;12.18;58.49;98831.63;3121920;28;20053;-69
2023/04/14 06:57:31;;;;;;;8.05;4.30;;;;;;;12.23;58.32;98834.78;3114663;28;20049;-66
2023/04/14 06:59:04;;;;;;;6.95;4.32;;;;;;;12.29;58.22;98840.41;3120711;28;20088;-66
2023/04/14 07:00:36;;;;;;;7.00;4.28;;;;;;;12.32;58.34;98831.56;3119350;28;20592;-66
2023/04/14 07:02:08;;;;;;;8.82;4.13;;;;;;;12.36;58.30;98821.72;3115200;28;20104;-64
2023/04/14 07:03:40;;;;;;;8.02;4.30;;;;;;;12.41;57.88;98817.88;3119156;28;20127;-65
2023/04/14 07:05:13;;;;;;;9.30;4.85;;;;;;;12.47;57.92;98825.28;3122871;28;20060;-65
2023/04/14 07:07:07;;;;;;;8.77;4.30;;;;;;;12.50;57.74;98814.63;3117583;28;20048;-65
2023/04/14 07:08:59;;;;;;;10.93;4.38;;;;;;;12.55;57.85;98814.31;3129798;28;20056;-63
2023/04/14 07:10:41;;;;;;;12.27;4.45;;;;;;;12.64;57.62;98820.69;3122320;28;20056;-68
2023/04/14 07:12:18;;;;;;;9.93;4.70;;;;;;;12.67;57.89;98810.03;3119547;28;20052;-66
2023/04/14 07:13:49;;;;;;;9.50;4.00;;;;;;;12.73;57.60;98809.59;3129702;28;20053;-68
2023/04/14 07:15:23;;;;;;;11.18;5.38;;;;;;;12.75;57.86;98805.94;3123696;28;20053;-67
2023/04/14 07:16:55;;;;;;;10.25;4.30;;;;;;;12.80;57.83;98812.59;3120670;28;20045;-69
2023/04/14 07:18:27;;;;;;;6.97;4.28;;;;;;;12.82;57.80;98811.56;3122044;28;20080;-69
2023/04/14 07:19:59;;;;;;;10.60;4.53;;;;;;;12.84;57.68;98809.69;3131651;28;20595;-65
2023/04/14 07:21:31;;;;;;;9.98;4.63;;;;;;;12.87;57.45;98803.41;3121787;28;20440;-64
2023/04/14 07:23:03;;;;;;;8.50;4.63;;;;;;;12.75;57.89;98785.03;3120736;28;20053;-67